Neches, TX (75779)

11:35 AM CST on January 21, 2017 (GMT -0600)
Neches/Todd City | | Change Station
Active Advisory: Flood Warning

Elev 420 ft 31.91 °N, 95.48 °W | Updated 23 seconds ago

Overcast
Overcast
61.7 °F
Feels Like 61.7 °F
N
0.0
Wind Variable Wind from SSW

Today
High -- | Low -- °F
--% Chance of Precip.
Yesterday
High -- | Low -- °F
Precip. -- in
Pressure 29.59 in
Visibility 4.0 miles
Clouds Overcast 300 ft
Dew Point 61 °F
Humidity 98%
Rainfall 0.00 in
Snow Depth Not available.
7:20 AM 5:46 PM
Waning Crescent, 33% visible
METAR KPSN 211715Z AUTO 15006KT 4SM BR OVC003 16/16 A2959 RMK AO2 T01680168
Pressure 29.59 in
Visibility 4.0 miles
Clouds Overcast 300 ft
Dew Point 61 °F
Humidity 98%
Rainfall 0.00 in
Snow Depth Not available.
7:20 AM 5:46 PM
Waning Crescent, 33% visible
METAR KPSN 211715Z AUTO 15006KT 4SM BR OVC003 16/16 A2959 RMK AO2 T01680168

Get Your Daily Forecast Email!

Thanks for signing up!

Be on the lookout for a verification email in your inbox.

You'll start receiving the daily forecast at 8 AM.

×

10-Day Weather Forecast

Almanac

Astronomy

Jan. 21, 2017 Rise Set
Actual Time
Civil Twilight
Nautical Twilight
Astronomical Twilight
Moon
Length of Visible Light
Length of Day
Tomorrow will be .
, % of the Moon is Illuminated

Today's Extremes

State Highs State Lows

Community

WunderPhotos

Upload Photos

1,962,540 photos uploaded!

WunderBlog® & News

Nearby

Air Quality

  Air Quality AQ Index Pollutant
Not available.

Snow Depth

Station Depth Elevation

Earthquake Activity

City Distance Mag. Time & Date
Minimum magnitude displayed is 2.5.

Coastal Water Temperatures

Place Temperature

Stations

Nearby Weather Stations

Station Location Temp. Windchill Dew Point Humidity Wind Precip. Elev Updated Type
                   

Watches & Warnings

Flood Warning
Issued: 8:43 AM CST Jan. 21, 2017 – National Weather Service

... The Flood Warning extended until Sunday evening... the Flood
Warning continues for
the Neches River near Neches.
* Until Sunday evening... or until the warning is cancelled.
* At 7:30 am Saturday the stage was 12.9 feet.
* Minor flooding is occurring and minor flooding is forecast.
* Flood stage is 12.0 feet.
* Forecast... the river will continue to fall to below flood stage by
early tomorrow.
* Impact... at 12.0 feet... expect minor lowland flooding of the heavily
wooded floodplain. Ranchers that may have livestock and equipment
in the river bottoms should move them to higher ground. Expect
minor flooding of the boat ramp.


Lat... Lon 3205 9551 3167 9524 3166 9537 3180 9544 3188 9548